Time;durP1;ratioP1;P1;durP2;ratioP2;P2;SDS_P1;SDS_P2;PMS_P1;PMS_P2;Temp;Humidity;BMP_temperature;BMP_pressure;BME280_temperature;BME280_humidity;BME280_pressure;Samples;Min_cycle;Max_cycle;Signal;HPM_P1;HPM_P2
2022/08/07 04:41:22;;;;;;;0.20;0.20;;;;;;;;;;7382213;19;20242;-72
2022/08/07 04:43:49;;;;;;;0.30;0.30;;;;;;;;;;7385314;19;20515;-73
2022/08/07 04:46:27;;;;;;;0.70;0.70;;;;;;;;;;7380702;19;20140;-72
2022/08/07 04:49:08;;;;;;;0.30;0.30;;;;;;;;;;7386394;19;20177;-73
2022/08/07 04:51:50;;;;;;;0.35;0.35;;;;;;;;;;7379238;19;20251;-72
2022/08/07 04:54:53;;;;;;;0.30;0.30;;;;;;;;;;7377576;19;20185;-73
2022/08/07 04:57:32;;;;;;;0.30;0.30;;;;;;;;;;7378277;19;20140;-73
2022/08/07 05:00:04;;;;;;;0.32;0.32;;;;;;;;;;7377317;19;20500;-73
2022/08/07 05:02:56;;;;;;;0.65;0.65;;;;;;;;;;7374095;19;20157;-74
2022/08/07 05:05:32;;;;;;;4.40;1.33;;;;;;;;;;7373910;19;20152;-72
2022/08/07 05:08:00;;;;;;;0.70;0.47;;;;;;;;;;7383577;19;20140;-73
2022/08/07 05:10:39;;;;;;;0.50;0.50;;;;;;;;;;7385008;19;20137;-72
2022/08/07 05:13:11;;;;;;;0.75;0.75;;;;;;;;;;7387177;19;20172;-72
2022/08/07 05:15:38;;;;;;;0.40;0.40;;;;;;;;;;7390742;19;20148;-72
2022/08/07 05:18:15;;;;;;;0.47;0.47;;;;;;;;;;7388020;19;20205;-72
2022/08/07 05:20:44;;;;;;;0.32;0.32;;;;;;;;;;7386944;19;20185;-72
2022/08/07 05:23:18;;;;;;;0.52;0.52;;;;;;;;;;7387515;19;20145;-72
2022/08/07 05:25:44;;;;;;;0.40;0.40;;;;;;;;;;7379296;19;20129;-72
2022/08/07 05:28:12;;;;;;;1.02;0.93;;;;;;;;;;7385834;19;20624;-72
2022/08/07 05:30:37;;;;;;;0.65;0.65;;;;;;;;;;7386743;19;20434;-73
2022/08/07 05:33:04;;;;;;;2.38;0.68;;;;;;;;;;7380343;19;20219;-72
2022/08/07 05:35:33;;;;;;;0.25;0.25;;;;;;;;;;7384537;19;20189;-73
2022/08/07 05:37:59;;;;;;;0.30;0.30;;;;;;;;;;7387019;19;20589;-72
2022/08/07 05:40:25;;;;;;;1.20;1.20;;;;;;;;;;7385498;19;20470;-72
2022/08/07 05:42:50;;;;;;;0.82;0.82;;;;;;;;;;7388243;19;20168;-72
2022/08/07 05:45:16;;;;;;;0.30;0.30;;;;;;;;;;7393538;19;20128;-73
2022/08/07 05:47:41;;;;;;;0.30;0.30;;;;;;;;;;7393221;19;20129;-72
2022/08/07 05:50:07;;;;;;;0.38;0.38;;;;;;;;;;7393981;19;20193;-73
2022/08/07 05:52:33;;;;;;;0.30;0.30;;;;;;;;;;7394854;19;20214;-72
2022/08/07 05:55:00;;;;;;;0.60;0.60;;;;;;;;;;7395390;19;20121;-72
2022/08/07 05:57:26;;;;;;;0.50;0.50;;;;;;;;;;7396677;19;20554;-73
2022/08/07 05:59:52;;;;;;;1.10;0.93;;;;;;;;;;7394714;19;20125;-75
2022/08/07 06:02:19;;;;;;;0.68;0.65;;;;;;;;;;7394806;19;20175;-74
2022/08/07 06:04:52;;;;;;;0.57;0.57;;;;;;;;;;7394715;19;20133;-74
2022/08/07 06:07:18;;;;;;;0.75;0.75;;;;;;;;;;7395234;19;20137;-74
2022/08/07 06:09:43;;;;;;;0.60;0.60;;;;;;;;;;7395933;19;20133;-72
2022/08/07 06:12:09;;;;;;;1.02;1.02;;;;;;;;;;7393953;19;20176;-72
2022/08/07 06:14:34;;;;;;;0.40;0.40;;;;;;;;;;7394787;19;20151;-74
2022/08/07 06:17:00;;;;;;;0.40;0.40;;;;;;;;;;7394415;19;20535;-72
2022/08/07 06:19:26;;;;;;;0.93;0.80;;;;;;;;;;7394181;19;20148;-72
2022/08/07 06:21:52;;;;;;;1.20;1.20;;;;;;;;;;7394512;19;20175;-72
2022/08/07 06:24:18;;;;;;;0.85;0.75;;;;;;;;;;7393767;19;20583;-72
2022/08/07 06:26:43;;;;;;;0.43;0.43;;;;;;;;;;7394377;19;20164;-73
2022/08/07 06:29:08;;;;;;;0.32;0.32;;;;;;;;;;7388202;19;20141;-72
2022/08/07 06:31:34;;;;;;;0.45;0.45;;;;;;;;;;7393827;19;20168;-72
2022/08/07 06:34:00;;;;;;;0.63;0.63;;;;;;;;;;7392101;19;20133;-73
2022/08/07 06:36:25;;;;;;;0.80;0.80;;;;;;;;;;7393008;19;20232;-73
2022/08/07 06:38:51;;;;;;;0.30;0.30;;;;;;;;;;7392486;19;20121;-72
2022/08/07 06:41:26;;;;;;;1.30;1.30;;;;;;;;;;7392708;19;20121;-72
2022/08/07 06:43:52;;;;;;;1.02;1.02;;;;;;;;;;7390848;19;20200;-75
2022/08/07 06:46:18;;;;;;;0.65;0.65;;;;;;;;;;7394460;19;20125;-75
2022/08/07 06:48:43;;;;;;;0.52;0.52;;;;;;;;;;7394138;19;20147;-74
2022/08/07 06:51:11;;;;;;;0.52;0.52;;;;;;;;;;7395952;19;20219;-72
2022/08/07 06:53:39;;;;;;;0.68;0.68;;;;;;;;;;7394007;19;20631;-73
2022/08/07 06:56:05;;;;;;;0.50;0.50;;;;;;;;;;7393726;19;20117;-73
2022/08/07 06:58:32;;;;;;;0.40;0.40;;;;;;;;;;7394825;19;20125;-74
2022/08/07 07:00:58;;;;;;;0.50;0.50;;;;;;;;;;7389112;19;20129;-72
2022/08/07 07:03:23;;;;;;;0.60;0.60;;;;;;;;;;7387535;19;20177;-73
2022/08/07 07:05:49;;;;;;;0.30;0.30;;;;;;;;;;7383204;19;20132;-72
2022/08/07 07:08:14;;;;;;;0.68;0.68;;;;;;;;;;7377479;19;20132;-74
2022/08/07 07:10:40;;;;;;;0.57;0.57;;;;;;;;;;7383569;19;20125;-72
2022/08/07 07:13:16;;;;;;;1.30;0.95;;;;;;;;;;7382049;19;20706;-73
2022/08/07 07:15:54;;;;;;;0.30;0.30;;;;;;;;;;7387443;19;20136;-73
2022/08/07 07:18:27;;;;;;;0.32;0.32;;;;;;;;;;7390612;19;20125;-72
2022/08/07 07:20:55;;;;;;;2.65;0.82;;;;;;;;;;7390188;19;20326;-73
2022/08/07 07:23:21;;;;;;;0.70;0.70;;;;;;;;;;7389191;19;20176;-73
2022/08/07 07:25:50;;;;;;;0.52;0.52;;;;;;;;;;7391830;19;20168;-74
2022/08/07 07:28:34;;;;;;;0.35;0.35;;;;;;;;;;7387466;19;20133;-73
2022/08/07 07:31:03;;;;;;;0.35;0.35;;;;;;;;;;7391340;19;20160;-74
2022/08/07 07:33:29;;;;;;;0.40;0.40;;;;;;;;;;7380764;19;20187;-73
2022/08/07 07:35:56;;;;;;;0.30;0.30;;;;;;;;;;7388244;19;20234;-72
2022/08/07 07:38:24;;;;;;;0.60;0.60;;;;;;;;;;7391391;19;20158;-72
2022/08/07 07:40:51;;;;;;;0.60;0.60;;;;;;;;;;7379098;19;20137;-75
2022/08/07 07:43:17;;;;;;;0.77;0.77;;;;;;;;;;7379552;19;20176;-72
2022/08/07 07:45:44;;;;;;;3.55;0.95;;;;;;;;;;7388079;19;20133;-72
2022/08/07 07:48:11;;;;;;;0.65;0.65;;;;;;;;;;7382808;19;20368;-72
2022/08/07 07:50:38;;;;;;;0.30;0.30;;;;;;;;;;7386185;19;20147;-75
2022/08/07 07:53:04;;;;;;;0.52;0.52;;;;;;;;;;7387658;19;20153;-74
2022/08/07 07:55:30;;;;;;;0.60;0.60;;;;;;;;;;7388990;19;20595;-76
2022/08/07 07:57:56;;;;;;;0.30;0.30;;;;;;;;;;7387381;19;20164;-75
2022/08/07 08:00:24;;;;;;;0.60;0.60;;;;;;;;;;7388176;19;20156;-74
2022/08/07 08:02:50;;;;;;;0.70;0.70;;;;;;;;;;7382787;19;20156;-75
2022/08/07 08:05:16;;;;;;;0.50;0.50;;;;;;;;;;7389438;19;20144;-75
2022/08/07 08:07:43;;;;;;;0.82;0.82;;;;;;;;;;7384487;19;20136;-75
2022/08/07 08:10:09;;;;;;;0.68;0.68;;;;;;;;;;7379526;19;20170;-72
2022/08/07 08:12:35;;;;;;;0.52;0.52;;;;;;;;;;7386172;19;20193;-73
2022/08/07 08:15:00;;;;;;;0.45;0.45;;;;;;;;;;7382719;19;20441;-73
2022/08/07 08:17:27;;;;;;;0.95;0.73;;;;;;;;;;7384086;19;20137;-72
2022/08/07 08:19:55;;;;;;;0.60;0.60;;;;;;;;;;7372444;19;20212;-73
2022/08/07 08:27:53;;;;;;;0.40;0.40;;;;;;;;;;7384009;19;20158;-72
2022/08/07 08:30:18;;;;;;;1.35;1.25;;;;;;;;;;7381210;19;20583;-72
2022/08/07 08:32:48;;;;;;;0.50;0.50;;;;;;;;;;7374365;19;20153;-72
2022/08/07 08:35:20;;;;;;;0.95;0.95;;;;;;;;;;7380735;19;20140;-72
2022/08/07 08:37:46;;;;;;;0.50;0.50;;;;;;;;;;7385956;19;20129;-73
2022/08/07 08:40:20;;;;;;;0.52;0.52;;;;;;;;;;7378423;19;20144;-72
2022/08/07 08:42:56;;;;;;;0.68;0.68;;;;;;;;;;7381525;19;20256;-72
2022/08/07 08:45:28;;;;;;;0.40;0.40;;;;;;;;;;7382494;19;20659;-73
2022/08/07 08:48:20;;;;;;;0.35;0.35;;;;;;;;;;7384875;19;20133;-73
2022/08/07 08:51:12;;;;;;;1.15;0.63;;;;;;;;;;7387054;19;20125;-72
2022/08/07 08:53:46;;;;;;;0.85;0.85;;;;;;;;;;7384335;19;20495;-72
2022/08/07 08:56:22;;;;;;;0.47;0.47;;;;;;;;;;7386349;19;20132;-73
2022/08/07 08:59:08;;;;;;;0.82;0.73;;;;;;;;;;7385415;19;20156;-72
2022/08/07 09:01:43;;;;;;;0.60;0.60;;;;;;;;;;7379973;19;20191;-72
2022/08/07 09:04:36;;;;;;;7.30;1.60;;;;;;;;;;7383914;19;20511;-73
2022/08/07 09:07:07;;;;;;;0.65;0.65;;;;;;;;;;7379161;19;20607;-72
2022/08/07 09:09:58;;;;;;;0.35;0.35;;;;;;;;;;7377364;19;20168;-72
2022/08/07 09:12:50;;;;;;;9.07;0.93;;;;;;;;;;7370293;19;20145;-73
2022/08/07 09:15:28;;;;;;;2.60;2.40;;;;;;;;;;7371802;19;20200;-73
2022/08/07 09:18:32;;;;;;;1.13;0.90;;;;;;;;;;7373200;19;20212;-73
2022/08/07 09:21:19;;;;;;;0.32;0.32;;;;;;;;;;7375521;19;20473;-73
2022/08/07 09:23:51;;;;;;;0.50;0.50;;;;;;;;;;7385310;19;20143;-72
2022/08/07 09:26:32;;;;;;;1.73;0.70;;;;;;;;;;7383789;19;20143;-72
2022/08/07 09:29:30;;;;;;;0.77;0.60;;;;;;;;;;7370931;19;20156;-73
2022/08/07 09:32:02;;;;;;;0.60;0.60;;;;;;;;;;7378742;19;20175;-73
2022/08/07 09:34:49;;;;;;;1.55;0.60;;;;;;;;;;7369723;19;20153;-73
2022/08/07 09:37:40;;;;;;;1.13;1.02;;;;;;;;;;7379187;19;20136;-73
2022/08/07 09:40:23;;;;;;;0.50;0.50;;;;;;;;;;7355168;19;20162;-73
2022/08/07 09:42:55;;;;;;;0.50;0.50;;;;;;;;;;7379066;19;20160;-72
2022/08/07 09:45:43;;;;;;;0.43;0.43;;;;;;;;;;7373401;19;20121;-72
2022/08/07 09:48:23;;;;;;;0.55;0.55;;;;;;;;;;7370144;19;20224;-72
2022/08/07 09:51:07;;;;;;;0.80;0.80;;;;;;;;;;7372397;19;20235;-73
2022/08/07 09:53:37;;;;;;;0.50;0.50;;;;;;;;;;7371007;19;20175;-72
2022/08/07 09:56:40;;;;;;;0.80;0.80;;;;;;;;;;7365994;19;20129;-73
2022/08/07 09:59:26;;;;;;;0.57;0.57;;;;;;;;;;7376040;19;20153;-73
2022/08/07 10:02:38;;;;;;;0.30;0.30;;;;;;;;;;7372887;19;20157;-73
2022/08/07 10:05:37;;;;;;;0.70;0.70;;;;;;;;;;7371104;19;20611;-73
2022/08/07 10:08:39;;;;;;;1.13;0.77;;;;;;;;;;7362762;19;20196;-73
2022/08/07 10:11:18;;;;;;;0.60;0.60;;;;;;;;;;7372895;19;20129;-73
2022/08/07 10:13:59;;;;;;;0.35;0.35;;;;;;;;;;7365756;19;20129;-73
2022/08/07 10:16:52;;;;;;;0.75;0.75;;;;;;;;;;7364857;19;20136;-73
2022/08/07 10:19:41;;;;;;;0.30;0.30;;;;;;;;;;7369445;19;20153;-73
2022/08/07 10:22:42;;;;;;;1.65;1.55;;;;;;;;;;7376009;19;20168;-73
2022/08/07 10:25:46;;;;;;;0.40;0.40;;;;;;;;;;7372354;19;20610;-73
2022/08/07 10:28:33;;;;;;;0.45;0.45;;;;;;;;;;7371686;19;20559;-73
2022/08/07 10:31:24;;;;;;;0.50;0.50;;;;;;;;;;7386239;19;20121;-73
2022/08/07 10:34:13;;;;;;;0.60;0.60;;;;;;;;;;7379634;19;20132;-73
2022/08/07 10:37:07;;;;;;;0.30;0.30;;;;;;;;;;7383834;19;20117;-73
2022/08/07 10:39:46;;;;;;;0.63;0.63;;;;;;;;;;7383343;19;20149;-75
2022/08/07 10:42:21;;;;;;;0.30;0.30;;;;;;;;;;7377856;19;20589;-72
2022/08/07 10:44:57;;;;;;;0.73;0.73;;;;;;;;;;7384005;19;20540;-73
2022/08/07 10:47:47;;;;;;;0.50;0.50;;;;;;;;;;7390884;19;20179;-73
2022/08/07 10:50:22;;;;;;;0.50;0.50;;;;;;;;;;7375818;19;20139;-73
2022/08/07 10:53:13;;;;;;;0.70;0.70;;;;;;;;;;7371896;19;20585;-72
2022/08/07 10:55:46;;;;;;;0.32;0.32;;;;;;;;;;7376468;19;20223;-74
2022/08/07 10:58:35;;;;;;;0.32;0.32;;;;;;;;;;7378840;19;20129;-72
2022/08/07 11:01:30;;;;;;;0.38;0.38;;;;;;;;;;7380282;19;20244;-73
2022/08/07 11:04:08;;;;;;;0.65;0.65;;;;;;;;;;7380344;19;20236;-73
2022/08/07 11:06:55;;;;;;;0.90;0.90;;;;;;;;;;7372087;19;20611;-72
2022/08/07 11:09:28;;;;;;;0.47;0.47;;;;;;;;;;7373260;19;20260;-73
2022/08/07 11:12:05;;;;;;;0.30;0.30;;;;;;;;;;7379226;19;20186;-72
2022/08/07 11:14:53;;;;;;;0.50;0.50;;;;;;;;;;7374788;19;20120;-72
2022/08/07 11:17:23;;;;;;;0.63;0.63;;;;;;;;;;7378603;19;20125;-72
2022/08/07 11:19:52;;;;;;;0.45;0.45;;;;;;;;;;7376493;19;20617;-73
2022/08/07 11:22:32;;;;;;;0.38;0.38;;;;;;;;;;7375543;19;20160;-74
2022/08/07 11:24:57;;;;;;;0.38;0.38;;;;;;;;;;7376630;19;20124;-73
2022/08/07 11:27:30;;;;;;;1.05;0.73;;;;;;;;;;7376041;19;20148;-72
2022/08/07 11:29:55;;;;;;;0.40;0.40;;;;;;;;;;7361096;19;20121;-72
2022/08/07 11:32:36;;;;;;;0.38;0.38;;;;;;;;;;7370347;19;20149;-72
2022/08/07 11:35:07;;;;;;;0.40;0.40;;;;;;;;;;7382616;19;20149;-73
2022/08/07 11:37:36;;;;;;;0.60;0.60;;;;;;;;;;7379995;19;20136;-73
2022/08/07 11:40:13;;;;;;;0.80;0.80;;;;;;;;;;7376255;19;20164;-73
2022/08/07 11:43:00;;;;;;;0.43;0.43;;;;;;;;;;7362361;19;20145;-73
2022/08/07 11:45:44;;;;;;;0.63;0.63;;;;;;;;;;7356840;19;20198;-72
2022/08/07 11:48:19;;;;;;;0.73;0.73;;;;;;;;;;7380809;19;20133;-73
2022/08/07 11:51:36;;;;;;;0.50;0.50;;;;;;;;;;7370533;19;20606;-73
2022/08/07 11:54:07;;;;;;;0.40;0.40;;;;;;;;;;7373136;19;20622;-72
2022/08/07 11:56:46;;;;;;;0.43;0.43;;;;;;;;;;7367925;19;20148;-72
2022/08/07 11:59:43;;;;;;;0.65;0.65;;;;;;;;;;7370481;19;20495;-72
2022/08/07 12:02:32;;;;;;;0.70;0.70;;;;;;;;;;7376604;19;20622;-73
2022/08/07 12:05:09;;;;;;;0.30;0.30;;;;;;;;;;7384664;19;20129;-71
2022/08/07 12:07:52;;;;;;;0.40;0.40;;;;;;;;;;7373719;19;20141;-72
2022/08/07 12:10:26;;;;;;;0.40;0.40;;;;;;;;;;7380850;19;20478;-71
2022/08/07 12:13:10;;;;;;;0.55;0.55;;;;;;;;;;7377839;19;20198;-72
2022/08/07 12:15:44;;;;;;;0.45;0.45;;;;;;;;;;7375840;19;20623;-72
2022/08/07 12:18:28;;;;;;;0.30;0.30;;;;;;;;;;7385978;19;20488;-72
2022/08/07 12:21:07;;;;;;;0.50;0.50;;;;;;;;;;7372872;19;20502;-72
2022/08/07 12:23:45;;;;;;;0.63;0.63;;;;;;;;;;7377059;19;21206;-72
2022/08/07 12:26:36;;;;;;;0.30;0.30;;;;;;;;;;7377988;19;20920;-72
2022/08/07 12:29:08;;;;;;;0.45;0.45;;;;;;;;;;7382551;19;20129;-72
2022/08/07 12:31:42;;;;;;;0.47;0.47;;;;;;;;;;7381669;19;20153;-72
2022/08/07 12:34:09;;;;;;;0.40;0.40;;;;;;;;;;7369913;19;20139;-72
2022/08/07 12:36:35;;;;;;;0.60;0.60;;;;;;;;;;7386674;19;20128;-72
2022/08/07 12:39:03;;;;;;;0.40;0.40;;;;;;;;;;7378723;19;20143;-72
2022/08/07 12:41:29;;;;;;;0.40;0.40;;;;;;;;;;7385987;19;20157;-72
2022/08/07 12:43:57;;;;;;;0.40;0.40;;;;;;;;;;7381164;19;20478;-72
2022/08/07 12:46:40;;;;;;;0.40;0.40;;;;;;;;;;7367146;19;20121;-72
2022/08/07 12:49:35;;;;;;;0.60;0.60;;;;;;;;;;7373902;19;20140;-71
2022/08/07 12:52:14;;;;;;;0.38;0.38;;;;;;;;;;7376571;19;20529;-74
2022/08/07 12:54:56;;;;;;;0.75;0.75;;;;;;;;;;7377291;19;20136;-73
2022/08/07 12:57:26;;;;;;;0.30;0.30;;;;;;;;;;7379191;19;20125;-75
2022/08/07 12:59:52;;;;;;;0.50;0.50;;;;;;;;;;7377992;19;20145;-74
2022/08/07 13:02:42;;;;;;;0.40;0.40;;;;;;;;;;7376449;19;20144;-75
2022/08/07 13:05:42;;;;;;;0.30;0.30;;;;;;;;;;7363383;19;20516;-75
2022/08/07 13:08:44;;;;;;;0.57;0.57;;;;;;;;;;7366528;19;20159;-74
2022/08/07 13:11:37;;;;;;;0.40;0.40;;;;;;;;;;7377074;19;20152;-76
2022/08/07 13:14:23;;;;;;;0.40;0.40;;;;;;;;;;7370682;19;20154;-75
2022/08/07 13:17:03;;;;;;;1.42;1.02;;;;;;;;;;7362262;19;20606;-75
2022/08/07 13:19:46;;;;;;;0.93;0.75;;;;;;;;;;7375593;19;20136;-75
2022/08/07 13:22:15;;;;;;;0.70;0.70;;;;;;;;;;7363300;19;20533;-74
2022/08/07 13:24:55;;;;;;;0.40;0.40;;;;;;;;;;7365058;19;20125;-75
2022/08/07 13:27:30;;;;;;;0.30;0.30;;;;;;;;;;7371022;19;20681;-75
2022/08/07 13:30:11;;;;;;;0.68;0.52;;;;;;;;;;7382778;19;20148;-75
2022/08/07 13:33:04;;;;;;;0.35;0.35;;;;;;;;;;7381712;19;20148;-76
2022/08/07 13:35:43;;;;;;;0.52;0.52;;;;;;;;;;7378770;19;20125;-73
2022/08/07 13:38:38;;;;;;;0.70;0.70;;;;;;;;;;7384360;19;20128;-73
2022/08/07 13:41:40;;;;;;;0.30;0.30;;;;;;;;;;7382368;19;20148;-73
2022/08/07 13:44:06;;;;;;;0.30;0.30;;;;;;;;;;7382005;19;20579;-73
2022/08/07 13:46:38;;;;;;;0.30;0.30;;;;;;;;;;7380412;19;20129;-73
2022/08/07 13:49:05;;;;;;;0.50;0.50;;;;;;;;;;7385262;19;20155;-73
2022/08/07 13:51:34;;;;;;;0.40;0.40;;;;;;;;;;7369000;19;20170;-73
2022/08/07 13:54:06;;;;;;;0.30;0.30;;;;;;;;;;7367811;19;20150;-70
2022/08/07 13:56:34;;;;;;;1.02;1.00;;;;;;;;;;7366934;19;20175;-72
2022/08/07 13:59:00;;;;;;;0.40;0.40;;;;;;;;;;7369003;19;20145;-73
2022/08/07 14:01:28;;;;;;;0.32;0.32;;;;;;;;;;7375262;19;20137;-72
2022/08/07 14:03:55;;;;;;;0.30;0.30;;;;;;;;;;7375687;19;20144;-72
2022/08/07 14:06:21;;;;;;;1.55;0.95;;;;;;;;;;7378553;19;20200;-73
2022/08/07 14:08:48;;;;;;;1.20;0.50;;;;;;;;;;7379501;19;20152;-73
2022/08/07 14:11:16;;;;;;;0.40;0.40;;;;;;;;;;7379032;19;20164;-73
2022/08/07 14:13:46;;;;;;;0.43;0.40;;;;;;;;;;7382533;19;20133;-72
2022/08/07 14:16:14;;;;;;;0.32;0.32;;;;;;;;;;7383817;19;20129;-71
2022/08/07 14:18:44;;;;;;;0.40;0.40;;;;;;;;;;7377910;19;20174;-73
2022/08/07 14:21:29;;;;;;;0.45;0.45;;;;;;;;;;7388918;19;20169;-73
2022/08/07 14:24:07;;;;;;;0.30;0.30;;;;;;;;;;7385090;19;20129;-72
2022/08/07 14:26:56;;;;;;;0.30;0.30;;;;;;;;;;7382486;19;20144;-73
2022/08/07 14:29:35;;;;;;;0.32;0.32;;;;;;;;;;7377268;19;20581;-73
2022/08/07 14:32:04;;;;;;;0.30;0.30;;;;;;;;;;7382708;19;20750;-72
2022/08/07 14:34:31;;;;;;;0.40;0.40;;;;;;;;;;7384690;19;20184;-73
2022/08/07 14:36:59;;;;;;;0.47;0.47;;;;;;;;;;7379856;19;20141;-72
2022/08/07 14:39:24;;;;;;;0.30;0.30;;;;;;;;;;7384185;19;20129;-73
2022/08/07 14:41:51;;;;;;;0.60;0.60;;;;;;;;;;7379952;19;20216;-73
2022/08/07 14:44:17;;;;;;;0.30;0.30;;;;;;;;;;7385802;19;20677;-73
2022/08/07 14:46:43;;;;;;;0.50;0.50;;;;;;;;;;7394424;19;20617;-72
2022/08/07 14:49:10;;;;;;;0.20;0.20;;;;;;;;;;7388044;19;20121;-71
2022/08/07 14:51:36;;;;;;;0.30;0.30;;;;;;;;;;7387648;19;20156;-73
2022/08/07 14:54:02;;;;;;;0.30;0.30;;;;;;;;;;7380316;19;20158;-72
2022/08/07 14:56:30;;;;;;;0.32;0.32;;;;;;;;;;7392758;19;20145;-72
2022/08/07 14:59:03;;;;;;;0.40;0.40;;;;;;;;;;7389919;19;20129;-73
2022/08/07 15:01:33;;;;;;;0.40;0.40;;;;;;;;;;7386107;19;20141;-73
2022/08/07 15:04:00;;;;;;;0.60;0.60;;;;;;;;;;7390504;19;20166;-72
2022/08/07 15:06:29;;;;;;;0.30;0.30;;;;;;;;;;7390932;19;20145;-72
2022/08/07 15:09:01;;;;;;;0.70;0.70;;;;;;;;;;7392476;19;20145;-73
2022/08/07 15:11:30;;;;;;;0.38;0.38;;;;;;;;;;7391806;19;20157;-73
2022/08/07 15:14:00;;;;;;;0.40;0.40;;;;;;;;;;7385961;19;20478;-72
2022/08/07 15:16:49;;;;;;;0.30;0.30;;;;;;;;;;7388561;19;20125;-71
2022/08/07 15:19:17;;;;;;;0.30;0.30;;;;;;;;;;7391163;19;20643;-73
2022/08/07 15:21:46;;;;;;;0.40;0.40;;;;;;;;;;7388147;19;20637;-73
2022/08/07 15:24:14;;;;;;;0.40;0.40;;;;;;;;;;7384168;19;20190;-73
2022/08/07 15:26:42;;;;;;;0.40;0.40;;;;;;;;;;7391313;19;20224;-73
2022/08/07 15:29:09;;;;;;;0.40;0.40;;;;;;;;;;7390843;19;20136;-73
2022/08/07 15:31:35;;;;;;;0.30;0.30;;;;;;;;;;7389862;19;20153;-73
2022/08/07 15:34:03;;;;;;;0.30;0.30;;;;;;;;;;7394024;19;20117;-73
2022/08/07 15:36:30;;;;;;;0.30;0.30;;;;;;;;;;7392979;19;20495;-73
2022/08/07 15:38:55;;;;;;;0.57;0.57;;;;;;;;;;7391712;19;20572;-73
2022/08/07 15:41:23;;;;;;;0.65;0.60;;;;;;;;;;7390682;19;20129;-72
2022/08/07 15:44:02;;;;;;;0.50;0.50;;;;;;;;;;7390707;19;20166;-72
2022/08/07 15:46:28;;;;;;;0.30;0.30;;;;;;;;;;7387878;19;20141;-73
2022/08/07 15:48:56;;;;;;;0.30;0.30;;;;;;;;;;7392808;19;20125;-72
2022/08/07 15:51:23;;;;;;;0.30;0.30;;;;;;;;;;7389739;19;20166;-73
2022/08/07 15:53:52;;;;;;;0.30;0.30;;;;;;;;;;7391686;19;20144;-73
2022/08/07 15:56:21;;;;;;;0.75;0.75;;;;;;;;;;7391097;19;20153;-72
2022/08/07 15:58:52;;;;;;;0.40;0.40;;;;;;;;;;7392592;19;20125;-73
2022/08/07 16:01:20;;;;;;;0.40;0.40;;;;;;;;;;7387585;19;20121;-71
2022/08/07 16:03:50;;;;;;;0.40;0.40;;;;;;;;;;7385342;19;20129;-73
2022/08/07 16:06:23;;;;;;;0.88;0.88;;;;;;;;;;7373569;19;20121;-73
2022/08/07 16:08:50;;;;;;;0.32;0.32;;;;;;;;;;7367791;19;20140;-72
2022/08/07 16:11:32;;;;;;;0.30;0.30;;;;;;;;;;7364416;19;20877;-72
2022/08/07 16:14:04;;;;;;;0.60;0.60;;;;;;;;;;7388583;19;20151;-73
2022/08/07 16:16:49;;;;;;;0.40;0.40;;;;;;;;;;7388730;19;20514;-73
2022/08/07 16:19:36;;;;;;;0.50;0.50;;;;;;;;;;7369000;19;20485;-72
2022/08/07 16:22:07;;;;;;;0.30;0.30;;;;;;;;;;7364972;19;20506;-73
2022/08/07 16:25:03;;;;;;;0.45;0.45;;;;;;;;;;7376364;19;20149;-73
2022/08/07 16:27:37;;;;;;;1.55;0.93;;;;;;;;;;7371111;19;20165;-73
2022/08/07 16:30:14;;;;;;;0.30;0.30;;;;;;;;;;7367442;19;20526;-73
2022/08/07 16:32:46;;;;;;;0.90;0.43;;;;;;;;;;7374069;19;20196;-72
2022/08/07 16:35:25;;;;;;;0.75;0.75;;;;;;;;;;7376161;19;20642;-74
2022/08/07 16:38:52;;;;;;;0.60;0.60;;;;;;;;;;7379575;19;20172;-73
2022/08/07 16:41:34;;;;;;;0.40;0.40;;;;;;;;;;7378970;19;20516;-72
2022/08/07 16:44:44;;;;;;;2.95;1.40;;;;;;;;;;7371316;19;20176;-73
